avis per tempestes more information blitzortung!


avis per Pluja more information rain snow radar


Visita la nostra xarxa de llocs de meteo:

Template documentation
and downloads

And another site



Thunderstorms From: 20-07-2018 17:00 Until: 21-07-2018 01:59 warning for: Thunderstorms Level: Yellow info button
Rain From: 20-07-2018 17:00 Until: 21-07-2018 01:59 warning for: Rain Level: Yellow info button

Pagina Historial Weather Underground text

Diari Resum Agost 22, 2017 Unitats:  Tant    Imperial   Mètric
« Previous Dia
SegĂźent Dia »
Diari Setmana Mensual Anual Personalitzada
  Maxima: Minima: Media:
Temperatura: TemperatureC °F /  -17.8 °C 18.9 °F /  -7.3 °C 26.4 °F /  -3.1 °C
Punt de rosada: DewpointC °F /  -17.8 °C 16.0 °F /  -8.9 °C 17.6 °F /  -8 °C
Humitat: Humidity % 42 % 60 %
Wind Speed: WindSpeedKMH mph /  0 km/h - 7.2 mph /  11.6 km/h
RĂ fegues de vent: WindSpeedGustKMH mph /  0 km/h - -
Vent:- - SW
Pression baro: PressurehPa in /  0 hPa 1013.8 in /  34327.3 hPa -
Precipitacions: 0.0 in /  0 mm    
Historical Graphs
 
 
Dades de taula per Agost 22, 2017
Temps Temperatura Punt de rosada Pression baro Vent Wind Speed RĂ fegues de vent Humitat Rainfall Rate (Hourly)
TemperatureC °F /  -17.8 °C DewpointC °F /  -17.8 °C PressurehPa in /  0 hPa Calm     Humidity % HourlyPrecipMM in /  0 mm
00:03 23.2 °F /  -4.9 °C 17.2 °F /  -8.2 °C 1016.8 in /  34428.8 hPa SW 1.9 mph /  3.1 km/h   69 % 0.0 in /  0 mm
00:05 21.2 °F /  -6 °C 18.2 °F /  -7.7 °C 1015.8 in /  34395 hPa Calm   1.6 mph /  2.6 km/h 83 % 0.0 in /  0 mm
00:15 21.2 °F /  -6 °C 18.2 °F /  -7.7 °C 1015.8 in /  34395 hPa Calm     83 % 0.0 in /  0 mm
00:25 21.1 °F /  -6.1 °C 18.1 °F /  -7.7 °C 1015.8 in /  34395 hPa WNW 1.6 mph /  2.6 km/h 1.6 mph /  2.6 km/h 83 % 0.0 in /  0 mm
00:35 20.9 °F /  -6.2 °C 17.9 °F /  -7.8 °C 1015.8 in /  34395 hPa WNW 1.6 mph /  2.6 km/h 1.6 mph /  2.6 km/h 83 % 0.0 in /  0 mm
00:45 20.7 °F /  -6.3 °C 17.7 °F /  -7.9 °C 1015.8 in /  34395 hPa WSW 1.6 mph /  2.6 km/h 1.6 mph /  2.6 km/h 83 % 0.0 in /  0 mm
00:55 20.6 °F /  -6.3 °C 17.6 °F /  -8 °C 1015.8 in /  34395 hPa Calm   1.6 mph /  2.6 km/h 83 % 0.0 in /  0 mm
01:05 20.5 °F /  -6.4 °C 17.5 °F /  -8.1 °C 1015.8 in /  34395 hPa Calm   1.6 mph /  2.6 km/h 83 % 0.0 in /  0 mm
01:15 20.4 °F /  -6.4 °C 17.6 °F /  -8 °C 1015.8 in /  34395 hPa Calm     84 % 0.0 in /  0 mm
01:25 20.3 °F /  -6.5 °C 17.5 °F /  -8.1 °C 1015.8 in /  34395 hPa Calm     84 % 0.0 in /  0 mm
01:35 20.0 °F /  -6.7 °C 17.0 °F /  -8.3 °C 1015.8 in /  34395 hPa SW 3.2 mph /  5.1 km/h 3.2 mph /  5.1 km/h 83 % 0.0 in /  0 mm
01:45 19.7 °F /  -6.8 °C 16.7 °F /  -8.5 °C 1015.8 in /  34395 hPa SW 3.2 mph /  5.1 km/h 4.8 mph /  7.7 km/h 83 % 0.0 in /  0 mm
01:55 19.7 °F /  -6.8 °C 16.9 °F /  -8.4 °C 1015.8 in /  34395 hPa WSW 3.2 mph /  5.1 km/h 3.2 mph /  5.1 km/h 84 % 0.0 in /  0 mm
02:05 19.7 °F /  -6.8 °C 17.1 °F /  -8.3 °C 1015.8 in /  34395 hPa Calm   3.2 mph /  5.1 km/h 85 % 0.0 in /  0 mm
02:15 19.8 °F /  -6.8 °C 17.2 °F /  -8.2 °C 1015.8 in /  34395 hPa WSW 1.6 mph /  2.6 km/h 3.2 mph /  5.1 km/h 85 % 0.0 in /  0 mm
02:25 19.7 °F /  -6.8 °C 17.1 °F /  -8.3 °C 1015.8 in /  34395 hPa Calm   1.6 mph /  2.6 km/h 85 % 0.0 in /  0 mm
02:35 19.7 °F /  -6.8 °C 17.1 °F /  -8.3 °C 1015.8 in /  34395 hPa Calm     85 % 0.0 in /  0 mm
02:45 19.3 °F /  -7.1 °C 16.5 °F /  -8.6 °C 1015.8 in /  34395 hPa North 3.2 mph /  5.1 km/h 3.2 mph /  5.1 km/h 84 % 0.0 in /  0 mm
03:05 19.2 °F /  -7.1 °C 16.6 °F /  -8.6 °C 1015.8 in /  34395 hPa Calm   1.6 mph /  2.6 km/h 85 % 0.0 in /  0 mm
03:15 19.0 °F /  -7.2 °C 16.4 °F /  -8.7 °C 1015.8 in /  34395 hPa Calm   3.2 mph /  5.1 km/h 85 % 0.0 in /  0 mm
03:25 18.9 °F /  -7.3 °C 16.5 °F /  -8.6 °C 1015.8 in /  34395 hPa SW 3.2 mph /  5.1 km/h 4.8 mph /  7.7 km/h 86 % 0.0 in /  0 mm
03:35 18.9 °F /  -7.3 °C 16.5 °F /  -8.6 °C 1015.8 in /  34395 hPa SW 3.2 mph /  5.1 km/h 3.2 mph /  5.1 km/h 86 % 0.0 in /  0 mm
03:45 19.0 °F /  -7.2 °C 16.6 °F /  -8.6 °C 1015.8 in /  34395 hPa WSW 1.6 mph /  2.6 km/h 3.2 mph /  5.1 km/h 86 % 0.0 in /  0 mm
03:55 19.1 °F /  -7.2 °C 16.7 °F /  -8.5 °C 1015.8 in /  34395 hPa WSW 1.6 mph /  2.6 km/h 3.2 mph /  5.1 km/h 86 % 0.0 in /  0 mm
04:05 19.1 °F /  -7.2 °C 16.7 °F /  -8.5 °C 1015.8 in /  34395 hPa SW 3.2 mph /  5.1 km/h 3.2 mph /  5.1 km/h 86 % 0.0 in /  0 mm
04:15 19.6 °F /  -6.9 °C 17.4 °F /  -8.1 °C 1015.8 in /  34395 hPa Calm   3.2 mph /  5.1 km/h 87 % 0.0 in /  0 mm
04:25 20.7 °F /  -6.3 °C 18.3 °F /  -7.6 °C 1015.8 in /  34395 hPa Calm   3.2 mph /  5.1 km/h 86 % 0.0 in /  0 mm
04:35 21.1 °F /  -6.1 °C 18.1 °F /  -7.7 °C 1015.8 in /  34395 hPa East 1.6 mph /  2.6 km/h 3.2 mph /  5.1 km/h 83 % 0.0 in /  0 mm
04:45 22.0 °F /  -5.6 °C 18.6 °F /  -7.4 °C 1016.8 in /  34428.8 hPa ENE 1.6 mph /  2.6 km/h 3.2 mph /  5.1 km/h 81 % 0.0 in /  0 mm
04:55 22.7 °F /  -5.2 °C 18.9 °F /  -7.3 °C 1016.8 in /  34428.8 hPa ENE 1.6 mph /  2.6 km/h 3.2 mph /  5.1 km/h 79 % 0.0 in /  0 mm
05:05 22.7 °F /  -5.2 °C 18.9 °F /  -7.3 °C 1015.8 in /  34395 hPa SSW 1.6 mph /  2.6 km/h 3.2 mph /  5.1 km/h 79 % 0.0 in /  0 mm
05:15 23.0 °F /  -5 °C 18.6 °F /  -7.4 °C 1016.8 in /  34428.8 hPa SSW 1.6 mph /  2.6 km/h 3.2 mph /  5.1 km/h 76 % 0.0 in /  0 mm
05:25 22.8 °F /  -5.1 °C 18.6 °F /  -7.4 °C 1016.8 in /  34428.8 hPa SW 3.2 mph /  5.1 km/h 4.8 mph /  7.7 km/h 77 % 0.0 in /  0 mm
05:35 23.2 °F /  -4.9 °C 18.5 °F /  -7.5 °C 1015.8 in /  34395 hPa WSW 3.2 mph /  5.1 km/h 4.8 mph /  7.7 km/h 75 % 0.0 in /  0 mm
05:45 24.3 °F /  -4.3 °C 19.2 °F /  -7.1 °C 1015.8 in /  34395 hPa South 1.6 mph /  2.6 km/h 4.8 mph /  7.7 km/h 73 % 0.0 in /  0 mm
05:55 25.3 °F /  -3.7 °C 19.4 °F /  -7 °C 1015.8 in /  34395 hPa SE 1.6 mph /  2.6 km/h 4.8 mph /  7.7 km/h 70 % 0.0 in /  0 mm
11:03 27.2 °F /  -2.7 °C 18.8 °F /  -7.3 °C 1015.8 in /  34395 hPa SW 9.3 mph /  15 km/h 9.3 mph /  15 km/h 60 % 0.0 in /  0 mm
11:04 27.2 °F /  -2.7 °C 18.8 °F /  -7.3 °C 1015.8 in /  34395 hPa SW 9.3 mph /  15 km/h 9.3 mph /  15 km/h 60 % 0.0 in /  0 mm
11:05 27.2 °F /  -2.7 °C 18.8 °F /  -7.3 °C 1015.8 in /  34395 hPa WSW 9.3 mph /  15 km/h 9.3 mph /  15 km/h 60 % 0.0 in /  0 mm
11:10 27.5 °F /  -2.5 °C 19.1 °F /  -7.2 °C 1015.8 in /  34395 hPa SW 9.3 mph /  15 km/h 9.3 mph /  15 km/h 60 % 0.0 in /  0 mm
11:15 28.1 °F /  -2.2 °C 19.3 °F /  -7.1 °C 1015.8 in /  34395 hPa West 9.5 mph /  15.3 km/h 9.5 mph /  15.3 km/h 59 % 0.0 in /  0 mm
11:20 28.1 °F /  -2.2 °C 19.3 °F /  -7.1 °C 1015.8 in /  34395 hPa SW 9.3 mph /  15 km/h 9.3 mph /  15 km/h 59 % 0.0 in /  0 mm
11:25 28.4 °F /  -2 °C 19.6 °F /  -6.9 °C 1015.8 in /  34395 hPa East 5.6 mph /  9 km/h 5.6 mph /  9 km/h 59 % 0.0 in /  0 mm
11:30 28.7 °F /  -1.8 °C 19.6 °F /  -6.9 °C 1015.8 in /  34395 hPa SSW 9.3 mph /  15 km/h 9.3 mph /  15 km/h 58 % 0.0 in /  0 mm
11:35 29.6 °F /  -1.3 °C 20.2 °F /  -6.6 °C 1015.8 in /  34395 hPa West 6.1 mph /  9.8 km/h 6.1 mph /  9.8 km/h 57 % 0.0 in /  0 mm
11:40 29.2 °F /  -1.6 °C 19.8 °F /  -6.8 °C 1015.8 in /  34395 hPa WSW 7.4 mph /  11.9 km/h 7.4 mph /  11.9 km/h 57 % 0.0 in /  0 mm
11:45 29.2 °F /  -1.6 °C 19.5 °F /  -6.9 °C 1015.8 in /  34395 hPa SW 5.6 mph /  9 km/h 5.6 mph /  9 km/h 56 % 0.0 in /  0 mm
11:50 29.8 °F /  -1.2 °C 19.8 °F /  -6.8 °C 1015.8 in /  34395 hPa West 9.3 mph /  15 km/h 9.3 mph /  15 km/h 55 % 0.0 in /  0 mm
11:55 29.7 °F /  -1.3 °C 19.4 °F /  -7 °C 1015.8 in /  34395 hPa WSW 9.3 mph /  15 km/h 9.3 mph /  15 km/h 54 % 0.0 in /  0 mm
12:00 29.6 °F /  -1.3 °C 19.0 °F /  -7.2 °C 1015.8 in /  34395 hPa SW 7.9 mph /  12.7 km/h 7.9 mph /  12.7 km/h 53 % 0.0 in /  0 mm
12:05 29.6 °F /  -1.3 °C 19.0 °F /  -7.2 °C 1015.8 in /  34395 hPa SW 11.1 mph /  17.9 km/h 11.1 mph /  17.9 km/h 53 % 0.0 in /  0 mm
12:10 30.2 °F /  -1 °C 19.3 °F /  -7.1 °C 1015.8 in /  34395 hPa WSW 9.3 mph /  15 km/h 9.3 mph /  15 km/h 52 % 0.0 in /  0 mm
12:15 30.5 °F /  -0.8 °C 19.2 °F /  -7.1 °C 1014.8 in /  34361.1 hPa SSW 13.0 mph /  20.9 km/h 13.0 mph /  20.9 km/h 51 % 0.0 in /  0 mm
12:20 30.3 °F /  -0.9 °C 18.7 °F /  -7.4 °C 1014.8 in /  34361.1 hPa SW 10.3 mph /  16.6 km/h 10.3 mph /  16.6 km/h 50 % 0.0 in /  0 mm
12:25 30.5 °F /  -0.8 °C 18.6 °F /  -7.4 °C 1014.8 in /  34361.1 hPa SSW 5.8 mph /  9.3 km/h 5.8 mph /  9.3 km/h 49 % 0.0 in /  0 mm
12:30 30.7 °F /  -0.7 °C 18.8 °F /  -7.3 °C 1015.8 in /  34395 hPa South 13.0 mph /  20.9 km/h 13.0 mph /  20.9 km/h 49 % 0.0 in /  0 mm
12:35 30.5 °F /  -0.8 °C 18.2 °F /  -7.7 °C 1015.8 in /  34395 hPa SW 16.7 mph /  26.9 km/h 16.7 mph /  26.9 km/h 48 % 0.0 in /  0 mm
12:40 30.8 °F /  -0.7 °C 18.5 °F /  -7.5 °C 1015.8 in /  34395 hPa SW 7.4 mph /  11.9 km/h 7.4 mph /  11.9 km/h 48 % 0.0 in /  0 mm
12:45 31.1 °F /  -0.5 °C 18.8 °F /  -7.3 °C 1015.8 in /  34395 hPa WSW 9.3 mph /  15 km/h 9.3 mph /  15 km/h 48 % 0.0 in /  0 mm
12:50 31.5 °F /  -0.3 °C 18.8 °F /  -7.3 °C 1015.8 in /  34395 hPa South 13.0 mph /  20.9 km/h 13.0 mph /  20.9 km/h 47 % 0.0 in /  0 mm
12:55 31.6 °F /  -0.2 °C 18.9 °F /  -7.3 °C 1015.8 in /  34395 hPa SW 9.3 mph /  15 km/h 9.3 mph /  15 km/h 47 % 0.0 in /  0 mm
13:00 31.7 °F /  -0.2 °C 19.0 °F /  -7.2 °C 1015.8 in /  34395 hPa SSW 9.3 mph /  15 km/h 9.3 mph /  15 km/h 47 % 0.0 in /  0 mm
13:05 32.0 °F /  0 °C 19.3 °F /  -7.1 °C 1015.8 in /  34395 hPa WSW 7.4 mph /  11.9 km/h 7.4 mph /  11.9 km/h 47 % 0.0 in /  0 mm
13:10 32.7 °F /  0.4 °C 19.9 °F /  -6.7 °C 1015.8 in /  34395 hPa SW 9.3 mph /  15 km/h 9.3 mph /  15 km/h 47 % 0.0 in /  0 mm
13:15 33.0 °F /  0.6 °C 19.8 °F /  -6.8 °C 1014.8 in /  34361.1 hPa SSW 7.6 mph /  12.2 km/h 7.6 mph /  12.2 km/h 46 % 0.0 in /  0 mm
13:20 32.1 °F /  0.1 °C 19.0 °F /  -7.2 °C 1014.8 in /  34361.1 hPa South 11.1 mph /  17.9 km/h 11.1 mph /  17.9 km/h 46 % 0.0 in /  0 mm
13:25 32.2 °F /  0.1 °C 19.1 °F /  -7.2 °C 1014.8 in /  34361.1 hPa SW 6.1 mph /  9.8 km/h 6.1 mph /  9.8 km/h 46 % 0.0 in /  0 mm
13:30 32.2 °F /  0.1 °C 19.1 °F /  -7.2 °C 1014.8 in /  34361.1 hPa SW 14.8 mph /  23.8 km/h 14.8 mph /  23.8 km/h 46 % 0.0 in /  0 mm
13:35 32.7 °F /  0.4 °C 19.6 °F /  -6.9 °C 1014.8 in /  34361.1 hPa SW 13.7 mph /  22 km/h 13.7 mph /  22 km/h 46 % 0.0 in /  0 mm
13:40 32.3 °F /  0.2 °C 19.2 °F /  -7.1 °C 1014.8 in /  34361.1 hPa South 9.3 mph /  15 km/h 9.3 mph /  15 km/h 46 % 0.0 in /  0 mm
13:45 32.4 °F /  0.2 °C 18.9 °F /  -7.3 °C 1014.8 in /  34361.1 hPa SW 9.3 mph /  15 km/h 9.3 mph /  15 km/h 45 % 0.0 in /  0 mm
13:50 32.2 °F /  0.1 °C 18.8 °F /  -7.3 °C 1014.8 in /  34361.1 hPa WSW 11.1 mph /  17.9 km/h 11.1 mph /  17.9 km/h 45 % 0.0 in /  0 mm
13:55 32.2 °F /  0.1 °C 18.8 °F /  -7.3 °C 1014.8 in /  34361.1 hPa SSW 9.3 mph /  15 km/h 9.3 mph /  15 km/h 45 % 0.0 in /  0 mm
14:00 32.2 °F /  0.1 °C 18.8 °F /  -7.3 °C 1014.8 in /  34361.1 hPa West 11.9 mph /  19.2 km/h 11.9 mph /  19.2 km/h 45 % 0.0 in /  0 mm
14:05 32.4 °F /  0.2 °C 18.9 °F /  -7.3 °C 1014.8 in /  34361.1 hPa SSW 11.1 mph /  17.9 km/h 11.1 mph /  17.9 km/h 45 % 0.0 in /  0 mm
14:10 32.3 °F /  0.2 °C 18.8 °F /  -7.3 °C 1014.8 in /  34361.1 hPa South 13.0 mph /  20.9 km/h 13.0 mph /  20.9 km/h 45 % 0.0 in /  0 mm
14:15 32.1 °F /  0.1 °C 18.3 °F /  -7.6 °C 1014.8 in /  34361.1 hPa SSW 11.1 mph /  17.9 km/h 11.1 mph /  17.9 km/h 44 % 0.0 in /  0 mm
14:20 32.5 °F /  0.3 °C 19.1 °F /  -7.2 °C 1014.8 in /  34361.1 hPa SSW 9.3 mph /  15 km/h 9.3 mph /  15 km/h 45 % 0.0 in /  0 mm
14:25 32.6 °F /  0.3 °C 19.1 °F /  -7.2 °C 1014.8 in /  34361.1 hPa SW 9.3 mph /  15 km/h 9.3 mph /  15 km/h 45 % 0.0 in /  0 mm
14:30 32.8 °F /  0.4 °C 19.3 °F /  -7.1 °C 1014.8 in /  34361.1 hPa SW 11.9 mph /  19.2 km/h 11.9 mph /  19.2 km/h 45 % 0.0 in /  0 mm
14:35 32.7 °F /  0.4 °C 18.8 °F /  -7.3 °C 1014.8 in /  34361.1 hPa SSW 9.3 mph /  15 km/h 9.3 mph /  15 km/h 44 % 0.0 in /  0 mm
14:40 32.7 °F /  0.4 °C 18.8 °F /  -7.3 °C 1014.8 in /  34361.1 hPa WSW 17.5 mph /  28.2 km/h 17.5 mph /  28.2 km/h 44 % 0.0 in /  0 mm
14:45 32.6 °F /  0.3 °C 18.8 °F /  -7.3 °C 1014.8 in /  34361.1 hPa SW 13.0 mph /  20.9 km/h 13.0 mph /  20.9 km/h 44 % 0.0 in /  0 mm
14:50 32.9 °F /  0.5 °C 18.7 °F /  -7.4 °C 1014.8 in /  34361.1 hPa SSW 9.3 mph /  15 km/h 9.3 mph /  15 km/h 43 % 0.0 in /  0 mm
14:51 32.9 °F /  0.5 °C 18.7 °F /  -7.4 °C 1014.8 in /  34361.1 hPa SW 14.8 mph /  23.8 km/h 14.8 mph /  23.8 km/h 43 % 0.0 in /  0 mm
14:56 32.5 °F /  0.3 °C 17.9 °F /  -7.8 °C 1014.8 in /  34361.1 hPa West 16.7 mph /  26.9 km/h 16.7 mph /  26.9 km/h 42 % 0.0 in /  0 mm
15:01 32.6 °F /  0.3 °C 18.4 °F /  -7.6 °C 1014.8 in /  34361.1 hPa SW 16.7 mph /  26.9 km/h 16.7 mph /  26.9 km/h 43 % 0.0 in /  0 mm
15:06 32.6 °F /  0.3 °C 18.4 °F /  -7.6 °C 1014.8 in /  34361.1 hPa West 16.7 mph /  26.9 km/h 16.7 mph /  26.9 km/h 43 % 0.0 in /  0 mm
15:11 32.6 °F /  0.3 °C 18.0 °F /  -7.8 °C 1014.8 in /  34361.1 hPa SW 14.8 mph /  23.8 km/h 14.8 mph /  23.8 km/h 42 % 0.0 in /  0 mm
15:16 32.4 °F /  0.2 °C 17.8 °F /  -7.9 °C 1014.8 in /  34361.1 hPa NW 13.0 mph /  20.9 km/h 13.0 mph /  20.9 km/h 42 % 0.0 in /  0 mm
15:21 32.4 °F /  0.2 °C 17.8 °F /  -7.9 °C 1014.8 in /  34361.1 hPa WSW 16.7 mph /  26.9 km/h 16.7 mph /  26.9 km/h 42 % 0.0 in /  0 mm
15:26 32.0 °F /  0 °C 17.5 °F /  -8.1 °C 1014.8 in /  34361.1 hPa SW 14.8 mph /  23.8 km/h 14.8 mph /  23.8 km/h 42 % 0.0 in /  0 mm
15:31 31.9 °F /  -0.1 °C 17.8 °F /  -7.9 °C 1014.8 in /  34361.1 hPa SW 11.4 mph /  18.3 km/h 11.4 mph /  18.3 km/h 43 % 0.0 in /  0 mm
15:36 31.8 °F /  -0.1 °C 17.7 °F /  -7.9 °C 1014.8 in /  34361.1 hPa WSW 22.2 mph /  35.7 km/h 22.2 mph /  35.7 km/h 43 % 0.0 in /  0 mm
15:41 31.9 °F /  -0.1 °C 17.8 °F /  -7.9 °C 1014.8 in /  34361.1 hPa West 13.7 mph /  22 km/h 13.7 mph /  22 km/h 43 % 0.0 in /  0 mm
15:46 31.7 °F /  -0.2 °C 17.6 °F /  -8 °C 1014.8 in /  34361.1 hPa SW 13.0 mph /  20.9 km/h 13.0 mph /  20.9 km/h 43 % 0.0 in /  0 mm
15:51 32.0 °F /  0 °C 17.8 °F /  -7.9 °C 1014.8 in /  34361.1 hPa SSW 18.5 mph /  29.8 km/h 18.5 mph /  29.8 km/h 43 % 0.0 in /  0 mm
15:56 32.1 °F /  0.1 °C 17.9 °F /  -7.8 °C 1013.8 in /  34327.3 hPa SW 11.1 mph /  17.9 km/h 11.1 mph /  17.9 km/h 43 % 0.0 in /  0 mm
16:01 32.3 °F /  0.2 °C 18.1 °F /  -7.7 °C 1013.8 in /  34327.3 hPa SW 9.7 mph /  15.6 km/h 9.7 mph /  15.6 km/h 43 % 0.0 in /  0 mm
16:06 32.0 °F /  0 °C 17.5 °F /  -8.1 °C 1013.8 in /  34327.3 hPa SSW 20.4 mph /  32.8 km/h 20.4 mph /  32.8 km/h 42 % 0.0 in /  0 mm
16:11 32.3 °F /  0.2 °C 18.1 °F /  -7.7 °C 1014.8 in /  34361.1 hPa WSW 16.7 mph /  26.9 km/h 16.7 mph /  26.9 km/h 43 % 0.0 in /  0 mm
16:16 32.1 °F /  0.1 °C 17.6 °F /  -8 °C 1014.8 in /  34361.1 hPa SW 13.0 mph /  20.9 km/h 13.0 mph /  20.9 km/h 42 % 0.0 in /  0 mm
16:21 31.9 °F /  -0.1 °C 17.8 °F /  -7.9 °C 1014.8 in /  34361.1 hPa SSW 14.0 mph /  22.5 km/h 14.0 mph /  22.5 km/h 43 % 0.0 in /  0 mm
16:26 31.8 °F /  -0.1 °C 17.7 °F /  -7.9 °C 1014.8 in /  34361.1 hPa SW 10.8 mph /  17.4 km/h 10.8 mph /  17.4 km/h 43 % 0.0 in /  0 mm
16:27 31.9 °F /  -0.1 °C 17.8 °F /  -7.9 °C 1014.8 in /  34361.1 hPa South 11.1 mph /  17.9 km/h 11.1 mph /  17.9 km/h 43 % 0.0 in /  0 mm
16:32 31.2 °F /  -0.4 °C 17.1 °F /  -8.3 °C 1014.8 in /  34361.1 hPa SSW 16.7 mph /  26.9 km/h 16.7 mph /  26.9 km/h 43 % 0.0 in /  0 mm
16:37 31.0 °F /  -0.6 °C 16.9 °F /  -8.4 °C 1014.8 in /  34361.1 hPa SW 16.7 mph /  26.9 km/h 16.7 mph /  26.9 km/h 43 % 0.0 in /  0 mm
16:42 31.3 °F /  -0.4 °C 17.2 °F /  -8.2 °C 1013.8 in /  34327.3 hPa SW 9.5 mph /  15.3 km/h 9.5 mph /  15.3 km/h 43 % 0.0 in /  0 mm
16:47 31.3 °F /  -0.4 °C 17.2 °F /  -8.2 °C 1013.8 in /  34327.3 hPa South 16.7 mph /  26.9 km/h 16.7 mph /  26.9 km/h 43 % 0.0 in /  0 mm
16:52 31.0 °F /  -0.6 °C 16.9 °F /  -8.4 °C 1013.8 in /  34327.3 hPa SSW 9.3 mph /  15 km/h 9.3 mph /  15 km/h 43 % 0.0 in /  0 mm
16:57 31.2 °F /  -0.4 °C 17.1 °F /  -8.3 °C 1013.8 in /  34327.3 hPa West 11.1 mph /  17.9 km/h 11.1 mph /  17.9 km/h 43 % 0.0 in /  0 mm
17:02 31.4 °F /  -0.3 °C 17.3 °F /  -8.2 °C 1013.8 in /  34327.3 hPa WSW 12.2 mph /  19.6 km/h 12.2 mph /  19.6 km/h 43 % 0.0 in /  0 mm
17:07 31.2 °F /  -0.4 °C 17.1 °F /  -8.3 °C 1013.8 in /  34327.3 hPa South 16.7 mph /  26.9 km/h 16.7 mph /  26.9 km/h 43 % 0.0 in /  0 mm
17:12 31.3 °F /  -0.4 °C 17.2 °F /  -8.2 °C 1013.8 in /  34327.3 hPa SW 7.4 mph /  11.9 km/h 7.4 mph /  11.9 km/h 43 % 0.0 in /  0 mm
17:17 31.1 °F /  -0.5 °C 17.1 °F /  -8.3 °C 1013.8 in /  34327.3 hPa South 16.7 mph /  26.9 km/h 16.7 mph /  26.9 km/h 43 % 0.0 in /  0 mm
17:22 31.0 °F /  -0.6 °C 16.9 °F /  -8.4 °C 1013.8 in /  34327.3 hPa South 16.1 mph /  25.9 km/h 16.1 mph /  25.9 km/h 43 % 0.0 in /  0 mm
17:27 30.8 °F /  -0.7 °C 17.1 °F /  -8.3 °C 1013.8 in /  34327.3 hPa WSW 13.0 mph /  20.9 km/h 13.0 mph /  20.9 km/h 44 % 0.0 in /  0 mm
17:32 31.1 °F /  -0.5 °C 17.1 °F /  -8.3 °C 1013.8 in /  34327.3 hPa SSW 7.4 mph /  11.9 km/h 7.4 mph /  11.9 km/h 43 % 0.0 in /  0 mm
17:37 31.2 °F /  -0.4 °C 17.5 °F /  -8.1 °C 1013.8 in /  34327.3 hPa ENE 11.1 mph /  17.9 km/h 11.1 mph /  17.9 km/h 44 % 0.0 in /  0 mm
17:42 30.7 °F /  -0.7 °C 17.1 °F /  -8.3 °C 1013.8 in /  34327.3 hPa WSW 20.4 mph /  32.8 km/h 20.4 mph /  32.8 km/h 44 % 0.0 in /  0 mm
17:47 30.4 °F /  -0.9 °C 16.8 °F /  -8.4 °C 1013.8 in /  34327.3 hPa SW 14.8 mph /  23.8 km/h 14.8 mph /  23.8 km/h 44 % 0.0 in /  0 mm
17:52 30.5 °F /  -0.8 °C 17.2 °F /  -8.2 °C 1013.8 in /  34327.3 hPa SW 11.1 mph /  17.9 km/h 11.1 mph /  17.9 km/h 45 % 0.0 in /  0 mm
17:57 30.2 °F /  -1 °C 16.6 °F /  -8.6 °C 1013.8 in /  34327.3 hPa SW 14.8 mph /  23.8 km/h 14.8 mph /  23.8 km/h 44 % 0.0 in /  0 mm
18:02 29.8 °F /  -1.2 °C 16.6 °F /  -8.6 °C 1013.8 in /  34327.3 hPa SW 11.4 mph /  18.3 km/h 11.4 mph /  18.3 km/h 45 % 0.0 in /  0 mm
18:07 29.6 °F /  -1.3 °C 16.8 °F /  -8.4 °C 1013.8 in /  34327.3 hPa WSW 11.1 mph /  17.9 km/h 11.1 mph /  17.9 km/h 46 % 0.0 in /  0 mm
18:12 30.2 °F /  -1 °C 16.9 °F /  -8.4 °C 1013.8 in /  34327.3 hPa SSE 7.4 mph /  11.9 km/h 7.4 mph /  11.9 km/h 45 % 0.0 in /  0 mm
18:17 29.9 °F /  -1.2 °C 17.0 °F /  -8.3 °C 1013.8 in /  34327.3 hPa WSW 11.1 mph /  17.9 km/h 11.1 mph /  17.9 km/h 46 % 0.0 in /  0 mm
18:22 29.5 °F /  -1.4 °C 16.7 °F /  -8.5 °C 1013.8 in /  34327.3 hPa SW 14.8 mph /  23.8 km/h 14.8 mph /  23.8 km/h 46 % 0.0 in /  0 mm
18:27 29.2 °F /  -1.6 °C 16.4 °F /  -8.7 °C 1013.8 in /  34327.3 hPa South 20.4 mph /  32.8 km/h 20.4 mph /  32.8 km/h 46 % 0.0 in /  0 mm
18:32 29.4 °F /  -1.4 °C 16.9 °F /  -8.4 °C 1013.8 in /  34327.3 hPa SW 9.3 mph /  15 km/h 9.3 mph /  15 km/h 47 % 0.0 in /  0 mm
18:37 29.4 °F /  -1.4 °C 16.9 °F /  -8.4 °C 1013.8 in /  34327.3 hPa South 12.2 mph /  19.6 km/h 12.2 mph /  19.6 km/h 47 % 0.0 in /  0 mm
18:42 29.2 °F /  -1.6 °C 16.7 °F /  -8.5 °C 1013.8 in /  34327.3 hPa SSW 9.3 mph /  15 km/h 9.3 mph /  15 km/h 47 % 0.0 in /  0 mm
18:47 28.8 °F /  -1.8 °C 16.7 °F /  -8.5 °C 1013.8 in /  34327.3 hPa SW 13.0 mph /  20.9 km/h 13.0 mph /  20.9 km/h 48 % 0.0 in /  0 mm
18:52 28.7 °F /  -1.8 °C 16.6 °F /  -8.6 °C 1013.8 in /  34327.3 hPa West 14.8 mph /  23.8 km/h 14.8 mph /  23.8 km/h 48 % 0.0 in /  0 mm
18:57 28.5 °F /  -1.9 °C 16.4 °F /  -8.7 °C 1013.8 in /  34327.3 hPa SSW 10.0 mph /  16.1 km/h 10.0 mph /  16.1 km/h 48 % 0.0 in /  0 mm
19:02 28.5 °F /  -1.9 °C 16.4 °F /  -8.7 °C 1013.8 in /  34327.3 hPa SSW 13.0 mph /  20.9 km/h 13.0 mph /  20.9 km/h 48 % 0.0 in /  0 mm
19:07 28.1 °F /  -2.2 °C 16.1 °F /  -8.8 °C 1013.8 in /  34327.3 hPa SW 7.4 mph /  11.9 km/h 7.4 mph /  11.9 km/h 48 % 0.0 in /  0 mm
19:12 28.1 °F /  -2.2 °C 16.4 °F /  -8.7 °C 1013.8 in /  34327.3 hPa South 11.1 mph /  17.9 km/h 11.1 mph /  17.9 km/h 49 % 0.0 in /  0 mm
19:17 28.0 °F /  -2.2 °C 16.3 °F /  -8.7 °C 1013.8 in /  34327.3 hPa SSW 11.1 mph /  17.9 km/h 11.1 mph /  17.9 km/h 49 % 0.0 in /  0 mm
19:22 28.1 °F /  -2.2 °C 16.4 °F /  -8.7 °C 1013.8 in /  34327.3 hPa South 7.4 mph /  11.9 km/h 7.4 mph /  11.9 km/h 49 % 0.0 in /  0 mm
19:27 27.8 °F /  -2.3 °C 16.1 °F /  -8.8 °C 1013.8 in /  34327.3 hPa SW 9.3 mph /  15 km/h 9.3 mph /  15 km/h 49 % 0.0 in /  0 mm
19:32 27.6 °F /  -2.4 °C 16.2 °F /  -8.8 °C 1013.8 in /  34327.3 hPa WSW 11.1 mph /  17.9 km/h 11.1 mph /  17.9 km/h 50 % 0.0 in /  0 mm
19:37 27.5 °F /  -2.5 °C 16.2 °F /  -8.8 °C 1013.8 in /  34327.3 hPa SSW 7.4 mph /  11.9 km/h 7.4 mph /  11.9 km/h 50 % 0.0 in /  0 mm
19:42 27.2 °F /  -2.7 °C 16.2 °F /  -8.8 °C 1013.8 in /  34327.3 hPa WSW 9.3 mph /  15 km/h 9.3 mph /  15 km/h 51 % 0.0 in /  0 mm
19:47 27.0 °F /  -2.8 °C 16.0 °F /  -8.9 °C 1013.8 in /  34327.3 hPa SSE 11.1 mph /  17.9 km/h 11.1 mph /  17.9 km/h 51 % 0.0 in /  0 mm
19:52 26.9 °F /  -2.8 °C 16.5 °F /  -8.6 °C 1013.8 in /  34327.3 hPa SW 9.7 mph /  15.6 km/h 9.7 mph /  15.6 km/h 53 % 0.0 in /  0 mm
19:57 26.6 °F /  -3 °C 16.5 °F /  -8.6 °C 1013.8 in /  34327.3 hPa SSW 7.4 mph /  11.9 km/h 7.4 mph /  11.9 km/h 54 % 0.0 in /  0 mm
20:02 26.5 °F /  -3.1 °C 16.4 °F /  -8.7 °C 1013.8 in /  34327.3 hPa WSW 10.0 mph /  16.1 km/h 10.0 mph /  16.1 km/h 54 % 0.0 in /  0 mm
20:07 26.4 °F /  -3.1 °C 16.9 °F /  -8.4 °C 1013.8 in /  34327.3 hPa SW 13.0 mph /  20.9 km/h 13.0 mph /  20.9 km/h 56 % 0.0 in /  0 mm
20:12 26.2 °F /  -3.2 °C 16.7 °F /  -8.5 °C 1013.8 in /  34327.3 hPa SW 14.8 mph /  23.8 km/h 14.8 mph /  23.8 km/h 56 % 0.0 in /  0 mm
20:15 22.5 °F /  -5.3 °C 17.8 °F /  -7.9 °C 1015.8 in /  34395 hPa Calm   4.8 mph /  7.7 km/h 75 % 0.0 in /  0 mm
20:17 26.1 °F /  -3.3 °C 16.6 °F /  -8.6 °C 1013.8 in /  34327.3 hPa SW 3.7 mph /  6 km/h 3.7 mph /  6 km/h 56 % 0.0 in /  0 mm
20:22 26.0 °F /  -3.3 °C 16.8 °F /  -8.4 °C 1013.8 in /  34327.3 hPa SSW 7.4 mph /  11.9 km/h 7.4 mph /  11.9 km/h 57 % 0.0 in /  0 mm
20:25 22.2 °F /  -5.4 °C 17.6 °F /  -8 °C 1015.8 in /  34395 hPa WSW 1.6 mph /  2.6 km/h 3.2 mph /  5.1 km/h 75 % 0.0 in /  0 mm
20:27 25.9 °F /  -3.4 °C 17.0 °F /  -8.3 °C 1013.8 in /  34327.3 hPa South 9.3 mph /  15 km/h 9.3 mph /  15 km/h 58 % 0.0 in /  0 mm
20:32 25.8 °F /  -3.4 °C 16.6 °F /  -8.6 °C 1013.8 in /  34327.3 hPa SSE 9.3 mph /  15 km/h 9.3 mph /  15 km/h 57 % 0.0 in /  0 mm
20:35 21.9 °F /  -5.6 °C 17.5 °F /  -8.1 °C 1015.8 in /  34395 hPa SW 1.6 mph /  2.6 km/h 3.2 mph /  5.1 km/h 76 % 0.0 in /  0 mm
20:37 25.6 °F /  -3.6 °C 17.0 °F /  -8.3 °C 1013.8 in /  34327.3 hPa SW 3.7 mph /  6 km/h 3.7 mph /  6 km/h 59 % 0.0 in /  0 mm
20:42 25.5 °F /  -3.6 °C 16.9 °F /  -8.4 °C 1013.8 in /  34327.3 hPa WSW 5.6 mph /  9 km/h 5.6 mph /  9 km/h 59 % 0.0 in /  0 mm
20:45 21.9 °F /  -5.6 °C 17.7 °F /  -7.9 °C 1014.8 in /  34361.1 hPa Calm   3.2 mph /  5.1 km/h 77 % 0.0 in /  0 mm
20:47 25.3 °F /  -3.7 °C 16.7 °F /  -8.5 °C 1013.8 in /  34327.3 hPa SW 6.1 mph /  9.8 km/h 6.1 mph /  9.8 km/h 59 % 0.0 in /  0 mm
20:52 25.2 °F /  -3.8 °C 16.9 °F /  -8.4 °C 1013.8 in /  34327.3 hPa WSW 3.9 mph /  6.3 km/h 3.9 mph /  6.3 km/h 60 % 0.0 in /  0 mm
20:55 21.8 °F /  -5.7 °C 17.6 °F /  -8 °C 1014.8 in /  34361.1 hPa SW 1.6 mph /  2.6 km/h 3.2 mph /  5.1 km/h 77 % 0.0 in /  0 mm
20:57 25.1 °F /  -3.8 °C 16.8 °F /  -8.4 °C 1013.8 in /  34327.3 hPa SW 5.6 mph /  9 km/h 5.6 mph /  9 km/h 60 % 0.0 in /  0 mm
21:02 24.9 °F /  -3.9 °C 16.8 °F /  -8.4 °C 1013.8 in /  34327.3 hPa SW 5.6 mph /  9 km/h 5.6 mph /  9 km/h 61 % 0.0 in /  0 mm
21:05 21.8 °F /  -5.7 °C 17.6 °F /  -8 °C 1015.8 in /  34395 hPa WSW 1.6 mph /  2.6 km/h 3.2 mph /  5.1 km/h 77 % 0.0 in /  0 mm
21:07 24.8 °F /  -4 °C 17.0 °F /  -8.3 °C 1013.8 in /  34327.3 hPa SW 9.3 mph /  15 km/h 9.3 mph /  15 km/h 62 % 0.0 in /  0 mm
21:12 24.7 °F /  -4.1 °C 16.9 °F /  -8.4 °C 1013.8 in /  34327.3 hPa SW 5.6 mph /  9 km/h 5.6 mph /  9 km/h 62 % 0.0 in /  0 mm
21:15 21.7 °F /  -5.7 °C 17.7 °F /  -7.9 °C 1015.8 in /  34395 hPa WSW 3.2 mph /  5.1 km/h 3.2 mph /  5.1 km/h 78 % 0.0 in /  0 mm
21:17 24.6 °F /  -4.1 °C 17.1 °F /  -8.3 °C 1013.8 in /  34327.3 hPa SW 5.6 mph /  9 km/h 5.6 mph /  9 km/h 63 % 0.0 in /  0 mm
21:22 24.4 °F /  -4.2 °C 17.2 °F /  -8.2 °C 1013.8 in /  34327.3 hPa SW 4.2 mph /  6.8 km/h 4.2 mph /  6.8 km/h 64 % 0.0 in /  0 mm
21:25 21.6 °F /  -5.8 °C 17.8 °F /  -7.9 °C 1015.8 in /  34395 hPa Calm   1.6 mph /  2.6 km/h 79 % 0.0 in /  0 mm
21:27 24.4 °F /  -4.2 °C 17.2 °F /  -8.2 °C 1014.8 in /  34361.1 hPa SW 3.7 mph /  6 km/h 3.7 mph /  6 km/h 64 % 0.0 in /  0 mm
21:32 24.3 °F /  -4.3 °C 17.1 °F /  -8.3 °C 1014.8 in /  34361.1 hPa SW 3.7 mph /  6 km/h 3.7 mph /  6 km/h 64 % 0.0 in /  0 mm
21:35 21.5 °F /  -5.8 °C 17.9 °F /  -7.8 °C 1015.8 in /  34395 hPa Calm   1.6 mph /  2.6 km/h 80 % 0.0 in /  0 mm
21:37 24.1 °F /  -4.4 °C 16.9 °F /  -8.4 °C 1014.8 in /  34361.1 hPa SW 5.6 mph /  9 km/h 5.6 mph /  9 km/h 64 % 0.0 in /  0 mm
21:42 24.0 °F /  -4.4 °C 17.0 °F /  -8.3 °C 1014.8 in /  34361.1 hPa SW 4.2 mph /  6.8 km/h 4.2 mph /  6.8 km/h 65 % 0.0 in /  0 mm
21:45 21.2 °F /  -6 °C 17.2 °F /  -8.2 °C 1015.8 in /  34395 hPa WNW 1.6 mph /  2.6 km/h 4.8 mph /  7.7 km/h 78 % 0.0 in /  0 mm
21:47 23.9 °F /  -4.5 °C 17.4 °F /  -8.1 °C 1014.8 in /  34361.1 hPa SW 1.9 mph /  3.1 km/h 1.9 mph /  3.1 km/h 67 % 0.0 in /  0 mm
21:52 23.9 °F /  -4.5 °C 17.4 °F /  -8.1 °C 1014.8 in /  34361.1 hPa SW 3.7 mph /  6 km/h 3.7 mph /  6 km/h 67 % 0.0 in /  0 mm
21:55 21.0 °F /  -6.1 °C 17.0 °F /  -8.3 °C 1015.8 in /  34395 hPa NNE 1.6 mph /  2.6 km/h 3.2 mph /  5.1 km/h 78 % 0.0 in /  0 mm
21:57 23.8 °F /  -4.6 °C 17.6 °F /  -8 °C 1014.8 in /  34361.1 hPa SW 3.7 mph /  6 km/h 3.7 mph /  6 km/h 68 % 0.0 in /  0 mm
22:02 23.7 °F /  -4.6 °C 17.4 °F /  -8.1 °C 1014.8 in /  34361.1 hPa WSW 3.7 mph /  6 km/h 3.7 mph /  6 km/h 68 % 0.0 in /  0 mm
22:05 20.8 °F /  -6.2 °C 17.2 °F /  -8.2 °C 1015.8 in /  34395 hPa Calm   3.2 mph /  5.1 km/h 80 % 0.0 in /  0 mm
22:07 23.7 °F /  -4.6 °C 17.7 °F /  -7.9 °C 1014.8 in /  34361.1 hPa SW 1.9 mph /  3.1 km/h 2.3 mph /  3.7 km/h 69 % 0.0 in /  0 mm
22:12 23.6 °F /  -4.7 °C 17.6 °F /  -8 °C 1014.8 in /  34361.1 hPa WSW 3.7 mph /  6 km/h 3.7 mph /  6 km/h 69 % 0.0 in /  0 mm
22:15 20.7 °F /  -6.3 °C 17.1 °F /  -8.3 °C 1014.8 in /  34361.1 hPa WSW 1.6 mph /  2.6 km/h 3.2 mph /  5.1 km/h 80 % 0.0 in /  0 mm
22:17 23.6 °F /  -4.7 °C 17.6 °F /  -8 °C 1014.8 in /  34361.1 hPa WSW 3.7 mph /  6 km/h 3.7 mph /  6 km/h 69 % 0.0 in /  0 mm
22:22 23.5 °F /  -4.7 °C 17.5 °F /  -8.1 °C 1014.8 in /  34361.1 hPa SW 3.7 mph /  6 km/h 3.7 mph /  6 km/h 69 % 0.0 in /  0 mm
22:25 20.4 °F /  -6.4 °C 17.1 °F /  -8.3 °C 1014.8 in /  34361.1 hPa Calm   3.2 mph /  5.1 km/h 81 % 0.0 in /  0 mm
22:27 23.4 °F /  -4.8 °C 17.6 °F /  -8 °C 1014.8 in /  34361.1 hPa SW 1.9 mph /  3.1 km/h   70 % 0.0 in /  0 mm
22:32 23.3 °F /  -4.8 °C 17.5 °F /  -8.1 °C 1014.8 in /  34361.1 hPa WSW 2.3 mph /  3.7 km/h   70 % 0.0 in /  0 mm
22:35 20.4 °F /  -6.4 °C 17.1 °F /  -8.3 °C 1014.8 in /  34361.1 hPa Calm   1.6 mph /  2.6 km/h 81 % 0.0 in /  0 mm
22:37 23.2 °F /  -4.9 °C 17.4 °F /  -8.1 °C 1014.8 in /  34361.1 hPa SW 1.9 mph /  3.1 km/h   70 % 0.0 in /  0 mm
22:42 23.1 °F /  -4.9 °C 17.3 °F /  -8.2 °C 1014.8 in /  34361.1 hPa SW 3.7 mph /  6 km/h 3.7 mph /  6 km/h 70 % 0.0 in /  0 mm
22:45 20.4 °F /  -6.4 °C 17.1 °F /  -8.3 °C 1014.8 in /  34361.1 hPa NNW 1.6 mph /  2.6 km/h 3.2 mph /  5.1 km/h 81 % 0.0 in /  0 mm
22:47 23.1 °F /  -4.9 °C 17.3 °F /  -8.2 °C 1014.8 in /  34361.1 hPa SW 3.7 mph /  6 km/h 3.7 mph /  6 km/h 70 % 0.0 in /  0 mm
22:52 23.0 °F /  -5 °C 17.4 °F /  -8.1 °C 1014.8 in /  34361.1 hPa Calm     71 % 0.0 in /  0 mm
22:55 20.5 °F /  -6.4 °C 17.3 °F /  -8.2 °C 1014.8 in /  34361.1 hPa Calm   3.2 mph /  5.1 km/h 82 % 0.0 in /  0 mm
22:57 23.0 °F /  -5 °C 17.4 °F /  -8.1 °C 1014.8 in /  34361.1 hPa WSW 2.6 mph /  4.2 km/h 2.6 mph /  4.2 km/h 71 % 0.0 in /  0 mm
23:02 23.0 °F /  -5 °C 17.4 °F /  -8.1 °C 1014.8 in /  34361.1 hPa WSW 2.6 mph /  4.2 km/h 2.6 mph /  4.2 km/h 71 % 0.0 in /  0 mm
23:05 20.5 °F /  -6.4 °C 17.3 °F /  -8.2 °C 1013.8 in /  34327.3 hPa NE 1.6 mph /  2.6 km/h 3.2 mph /  5.1 km/h 82 % 0.0 in /  0 mm
23:07 23.0 °F /  -5 °C 17.7 °F /  -7.9 °C 1014.8 in /  34361.1 hPa WSW 1.9 mph /  3.1 km/h   72 % 0.0 in /  0 mm
23:12 23.0 °F /  -5 °C 17.7 °F /  -7.9 °C 1014.8 in /  34361.1 hPa WSW 2.6 mph /  4.2 km/h 2.6 mph /  4.2 km/h 72 % 0.0 in /  0 mm
23:15 20.4 °F /  -6.4 °C 17.2 °F /  -8.2 °C 1013.8 in /  34327.3 hPa ENE 3.2 mph /  5.1 km/h 4.8 mph /  7.7 km/h 82 % 0.0 in /  0 mm
23:17 23.0 °F /  -5 °C 17.7 °F /  -7.9 °C 1014.8 in /  34361.1 hPa West 1.9 mph /  3.1 km/h 1.9 mph /  3.1 km/h 72 % 0.0 in /  0 mm
23:22 22.9 °F /  -5.1 °C 17.6 °F /  -8 °C 1014.8 in /  34361.1 hPa WSW 1.9 mph /  3.1 km/h   72 % 0.0 in /  0 mm
23:25 19.9 °F /  -6.7 °C 16.3 °F /  -8.7 °C 1013.8 in /  34327.3 hPa NE 4.8 mph /  7.7 km/h 6.4 mph /  10.3 km/h 80 % 0.0 in /  0 mm
23:27 22.8 °F /  -5.1 °C 17.7 °F /  -7.9 °C 1015.8 in /  34395 hPa Calm     73 % 0.0 in /  0 mm
23:32 22.8 °F /  -5.1 °C 17.7 °F /  -7.9 °C 1015.8 in /  34395 hPa Calm     73 % 0.0 in /  0 mm
23:35 19.8 °F /  -6.8 °C 16.6 °F /  -8.6 °C 1014.8 in /  34361.1 hPa WSW 3.2 mph /  5.1 km/h 4.8 mph /  7.7 km/h 82 % 0.0 in /  0 mm
23:37 22.7 °F /  -5.2 °C 17.6 °F /  -8 °C 1015.8 in /  34395 hPa Calm     73 % 0.0 in /  0 mm
23:42 22.7 °F /  -5.2 °C 17.8 °F /  -7.9 °C 1014.8 in /  34361.1 hPa Calm     74 % 0.0 in /  0 mm
23:45 19.9 °F /  -6.7 °C 16.9 °F /  -8.4 °C 1014.8 in /  34361.1 hPa Calm   3.2 mph /  5.1 km/h 83 % 0.0 in /  0 mm
23:47 22.7 °F /  -5.2 °C 17.8 °F /  -7.9 °C 1014.8 in /  34361.1 hPa Calm     74 % 0.0 in /  0 mm
23:52 22.6 °F /  -5.2 °C 17.7 °F /  -7.9 °C 1014.8 in /  34361.1 hPa Calm     74 % 0.0 in /  0 mm
23:55 20.3 °F /  -6.5 °C 17.1 °F /  -8.3 °C 1014.8 in /  34361.1 hPa West 3.2 mph /  5.1 km/h 4.8 mph /  7.7 km/h 82 % 0.0 in /  0 mm
23:57 22.6 °F /  -5.2 °C 17.7 °F /  -7.9 °C 1015.8 in /  34395 hPa Calm     74 % 0.0 in /  0 mm
Meteo Sesrovires
Elogis d' Weather Underground - 2 mb

Guio original per  Jim McMurry - jmcmurry@mwt.net Adaptat per a la plantilla per  Wim van der Kuil - Leuven-Template.eu

Trobareu la nostra informacio del temps tambe a:

Weather Underground

AWEKAS